Time;durP1;ratioP1;P1;durP2;ratioP2;P2;SDS_P1;SDS_P2;PMS_P1;PMS_P2;Temp;Humidity;BMP_temperature;BMP_pressure;BME280_temperature;BME280_humidity;BME280_pressure;Samples;Min_cycle;Max_cycle;Signal;HPM_P1;HPM_P2
2021/12/19 00:02:17;;;;;;;51.53;26.63;;;;;;;;;;5126403;27;20514;-67
2021/12/19 00:08:27;;;;;;;51.47;26.92;;;;;;;;;;5121517;27;20597;-65
2021/12/19 00:10:17;;;;;;;51.22;27.40;;;;;;;;;;5120564;28;20564;-67
2021/12/19 00:12:43;;;;;;;55.25;28.35;;;;;;;;;;5119681;28;20407;-64
2021/12/19 00:15:10;;;;;;;56.88;28.05;;;;;;;;;;5119644;28;20251;-64
2021/12/19 00:17:36;;;;;;;49.95;26.60;;;;;;;;;;5122089;28;20228;-65
2021/12/19 00:20:03;;;;;;;54.13;28.65;;;;;;;;;;5125264;28;20507;-65
2021/12/19 00:22:31;;;;;;;55.72;29.90;;;;;;;;;;5125109;28;20222;-65
2021/12/19 00:24:57;;;;;;;55.45;29.48;;;;;;;;;;5124984;28;20355;-67
2021/12/19 00:27:25;;;;;;;55.53;29.05;;;;;;;;;;5124372;28;20390;-66
2021/12/19 00:29:51;;;;;;;48.13;27.13;;;;;;;;;;5125221;28;20522;-66
2021/12/19 00:32:18;;;;;;;57.80;29.65;;;;;;;;;;5125218;28;20210;-66
2021/12/19 00:34:44;;;;;;;57.17;30.02;;;;;;;;;;5124823;28;20379;-66
2021/12/19 00:37:11;;;;;;;48.38;28.75;;;;;;;;;;5124803;27;20203;-66
2021/12/19 00:39:38;;;;;;;53.88;28.33;;;;;;;;;;5124718;28;20380;-65
2021/12/19 00:42:07;;;;;;;56.28;29.85;;;;;;;;;;5124675;28;20195;-65
2021/12/19 00:44:37;;;;;;;54.13;28.30;;;;;;;;;;5124425;28;20231;-65
2021/12/19 00:47:07;;;;;;;55.03;27.70;;;;;;;;;;5124657;28;20202;-65
2021/12/19 00:49:38;;;;;;;59.58;29.10;;;;;;;;;;5124772;28;20203;-65
2021/12/19 00:52:04;;;;;;;51.33;28.33;;;;;;;;;;5124459;28;20406;-66
2021/12/19 00:54:31;;;;;;;59.33;31.02;;;;;;;;;;5124245;28;20198;-65
2021/12/19 00:56:57;;;;;;;59.30;31.20;;;;;;;;;;5124649;28;20202;-66
2021/12/19 00:59:24;;;;;;;61.70;31.38;;;;;;;;;;5124202;28;20203;-67
2021/12/19 01:01:51;;;;;;;54.78;29.88;;;;;;;;;;5124790;28;20195;-66
2021/12/19 01:04:20;;;;;;;60.95;31.67;;;;;;;;;;5124624;28;20565;-67
2021/12/19 01:06:47;;;;;;;64.03;32.03;;;;;;;;;;5125061;28;20232;-67
2021/12/19 01:09:13;;;;;;;61.17;31.00;;;;;;;;;;5125316;28;20240;-67
2021/12/19 01:11:40;;;;;;;57.17;30.10;;;;;;;;;;5125263;28;20422;-67
2021/12/19 01:14:06;;;;;;;52.65;29.27;;;;;;;;;;5124852;28;20198;-66
2021/12/19 01:16:33;;;;;;;59.92;31.30;;;;;;;;;;5124107;27;20206;-66
2021/12/19 01:19:01;;;;;;;59.40;32.22;;;;;;;;;;5124066;28;20191;-66
2021/12/19 01:21:27;;;;;;;60.95;31.05;;;;;;;;;;5124333;28;20195;-66
2021/12/19 01:23:54;;;;;;;58.78;31.02;;;;;;;;;;5123748;28;20223;-66
2021/12/19 01:26:20;;;;;;;59.88;31.63;;;;;;;;;;5123866;28;20495;-66
2021/12/19 01:28:46;;;;;;;59.72;31.42;;;;;;;;;;5124188;28;20195;-66
2021/12/19 01:31:13;;;;;;;54.67;30.58;;;;;;;;;;5123879;28;20195;-66
2021/12/19 01:33:39;;;;;;;58.17;31.00;;;;;;;;;;5123511;28;20191;-69
2021/12/19 01:36:08;;;;;;;54.15;29.88;;;;;;;;;;5123693;28;20604;-65
2021/12/19 01:38:34;;;;;;;58.30;30.48;;;;;;;;;;5123792;28;20202;-65
2021/12/19 01:41:01;;;;;;;64.78;30.92;;;;;;;;;;5123931;28;20195;-65
2021/12/19 01:43:28;;;;;;;62.25;31.73;;;;;;;;;;5123751;28;20526;-65
2021/12/19 01:45:55;;;;;;;67.00;30.92;;;;;;;;;;5123303;28;20215;-65
2021/12/19 01:48:21;;;;;;;57.88;28.92;;;;;;;;;;5123431;27;20199;-65
2021/12/19 01:50:48;;;;;;;58.65;30.15;;;;;;;;;;5123802;28;20194;-65
2021/12/19 01:53:17;;;;;;;57.70;29.60;;;;;;;;;;5123552;28;20191;-65
2021/12/19 01:55:44;;;;;;;63.45;30.48;;;;;;;;;;5123352;28;20195;-65
2021/12/19 01:58:11;;;;;;;56.65;30.92;;;;;;;;;;5123147;28;20203;-64
2021/12/19 02:00:39;;;;;;;56.85;30.67;;;;;;;;;;5123292;28;20202;-66
2021/12/19 02:03:06;;;;;;;60.58;31.10;;;;;;;;;;5123120;28;20274;-66
2021/12/19 02:05:32;;;;;;;57.20;30.48;;;;;;;;;;5123034;28;20202;-66
2021/12/19 02:07:59;;;;;;;52.70;30.00;;;;;;;;;;5123618;28;20570;-66
2021/12/19 02:10:29;;;;;;;59.60;32.45;;;;;;;;;;5123534;28;20202;-66
2021/12/19 02:12:56;;;;;;;58.92;31.65;;;;;;;;;;5122486;28;20191;-66
2021/12/19 02:15:23;;;;;;;62.58;32.15;;;;;;;;;;5122004;28;20455;-66
2021/12/19 02:17:51;;;;;;;58.92;31.25;;;;;;;;;;5122946;28;20195;-66
2021/12/19 02:20:20;;;;;;;58.47;31.80;;;;;;;;;;5123373;28;20195;-67
2021/12/19 02:22:52;;;;;;;59.22;31.92;;;;;;;;;;5123300;28;20557;-67
2021/12/19 02:25:19;;;;;;;59.72;31.63;;;;;;;;;;5122740;28;20195;-67
2021/12/19 02:27:45;;;;;;;58.33;31.30;;;;;;;;;;5122662;28;20199;-67
2021/12/19 02:30:12;;;;;;;60.95;33.17;;;;;;;;;;5122297;28;20195;-67
2021/12/19 02:32:40;;;;;;;59.97;32.30;;;;;;;;;;5122911;28;20202;-67
2021/12/19 02:35:18;;;;;;;59.78;33.05;;;;;;;;;;5123051;28;20526;-67
2021/12/19 02:40:38;;;;;;;59.53;33.05;;;;;;;;;;5089044;28;20191;-66
2021/12/19 02:48:33;;;;;;;63.60;33.45;;;;;;;;;;5121369;28;20217;-67
2021/12/19 02:51:00;;;;;;;62.90;32.50;;;;;;;;;;5124412;28;20195;-69
2021/12/19 02:53:30;;;;;;;61.58;33.08;;;;;;;;;;5124612;28;20262;-69
2021/12/19 02:55:56;;;;;;;59.72;32.47;;;;;;;;;;5124567;28;20199;-69
2021/12/19 02:58:23;;;;;;;54.08;29.63;;;;;;;;;;5123524;28;20210;-69
2021/12/19 03:00:49;;;;;;;55.33;30.40;;;;;;;;;;5123610;28;20195;-69
2021/12/19 03:03:15;;;;;;;60.58;31.77;;;;;;;;;;5123621;28;20215;-69
2021/12/19 03:05:45;;;;;;;58.28;30.58;;;;;;;;;;5123492;28;20195;-69
2021/12/19 03:08:12;;;;;;;55.67;28.83;;;;;;;;;;5123684;28;20202;-69
2021/12/19 03:13:31;;;;;;;56.33;29.77;;;;;;;;;;5121104;28;20191;-69
2021/12/19 03:18:41;;;;;;;51.72;27.15;;;;;;;;;;5123359;28;20190;-69
2021/12/19 03:21:12;;;;;;;50.40;26.35;;;;;;;;;;5122420;28;20199;-66
2021/12/19 03:23:38;;;;;;;51.78;26.92;;;;;;;;;;5121613;28;20214;-66
2021/12/19 03:26:06;;;;;;;51.67;26.33;;;;;;;;;;5122341;28;20390;-66
2021/12/19 03:28:33;;;;;;;48.95;26.15;;;;;;;;;;5126348;28;20195;-66
2021/12/19 03:30:59;;;;;;;52.50;26.55;;;;;;;;;;5126478;28;20222;-67
2021/12/19 03:33:26;;;;;;;51.90;26.83;;;;;;;;;;5126546;27;20518;-67
2021/12/19 03:35:52;;;;;;;48.45;26.88;;;;;;;;;;5126529;28;20195;-69
2021/12/19 03:38:19;;;;;;;55.00;28.60;;;;;;;;;;5125885;28;20370;-66
2021/12/19 03:40:52;;;;;;;52.80;27.88;;;;;;;;;;5126296;28;20393;-66
2021/12/19 03:43:21;;;;;;;56.83;27.30;;;;;;;;;;5126117;28;20195;-68
2021/12/19 03:45:48;;;;;;;54.15;27.65;;;;;;;;;;5125873;28;20222;-68
2021/12/19 03:48:16;;;;;;;58.45;29.10;;;;;;;;;;5125808;28;20557;-68
2021/12/19 03:50:44;;;;;;;49.90;26.60;;;;;;;;;;5125540;28;20197;-68
2021/12/19 03:53:11;;;;;;;53.58;26.88;;;;;;;;;;5125624;28;20199;-68
2021/12/19 03:55:37;;;;;;;51.28;26.05;;;;;;;;;;5125643;28;20195;-68
2021/12/19 03:58:04;;;;;;;49.95;25.60;;;;;;;;;;5126262;28;20241;-69
2021/12/19 04:00:32;;;;;;;51.78;25.58;;;;;;;;;;5126410;28;20213;-69
2021/12/19 04:03:00;;;;;;;53.25;25.83;;;;;;;;;;5126806;28;20206;-69
2021/12/19 04:05:27;;;;;;;48.63;24.83;;;;;;;;;;5125863;28;20211;-69
2021/12/19 04:07:53;;;;;;;49.00;24.52;;;;;;;;;;5125554;28;20209;-67
2021/12/19 04:10:21;;;;;;;50.95;25.77;;;;;;;;;;5125554;28;20191;-67
2021/12/19 04:12:48;;;;;;;51.22;25.02;;;;;;;;;;5125502;28;20195;-67
2021/12/19 04:15:14;;;;;;;48.85;25.10;;;;;;;;;;5125184;28;20238;-67
2021/12/19 04:17:42;;;;;;;46.65;24.58;;;;;;;;;;5125343;28;20202;-67
2021/12/19 04:20:09;;;;;;;51.13;25.67;;;;;;;;;;5125042;28;20203;-67
2021/12/19 04:22:35;;;;;;;56.58;26.00;;;;;;;;;;5125406;28;20491;-67
2021/12/19 04:25:02;;;;;;;49.25;25.02;;;;;;;;;;5124888;28;20222;-67
2021/12/19 04:27:29;;;;;;;53.35;24.98;;;;;;;;;;5125308;28;20195;-67
2021/12/19 04:29:55;;;;;;;49.92;24.10;;;;;;;;;;5124865;28;20227;-66
2021/12/19 04:32:26;;;;;;;45.33;22.58;;;;;;;;;;5125395;27;20236;-66
2021/12/19 04:34:53;;;;;;;46.42;22.65;;;;;;;;;;5124967;28;20493;-66
2021/12/19 04:37:41;;;;;;;44.85;22.83;;;;;;;;;;5125303;28;20195;-68
2021/12/19 04:40:14;;;;;;;47.80;21.92;;;;;;;;;;5124227;28;20195;-65
2021/12/19 04:51:19;;;;;;;47.67;22.98;;;;;;;;;;5125600;28;20194;-68
2021/12/19 04:54:01;;;;;;;44.08;20.88;;;;;;;;;;5125428;28;20495;-68
2021/12/19 04:56:39;;;;;;;40.22;19.92;;;;;;;;;;5125014;28;20438;-68
2021/12/19 05:04:40;;;;;;;36.75;20.00;;;;;;;;;;5121781;28;20219;-65
2021/12/19 05:15:16;;;;;;;39.50;19.77;;;;;;;;;;5124101;28;20228;-65
2021/12/19 05:17:42;;;;;;;41.10;19.10;;;;;;;;;;5124296;28;20191;-65
2021/12/19 05:20:14;;;;;;;37.85;18.83;;;;;;;;;;5124407;28;20184;-65
2021/12/19 05:22:47;;;;;;;34.65;17.23;;;;;;;;;;5124450;28;20372;-65
2021/12/19 05:25:15;;;;;;;37.53;18.08;;;;;;;;;;5123902;28;20538;-65
2021/12/19 05:27:45;;;;;;;34.92;17.55;;;;;;;;;;5123925;28;20201;-65
2021/12/19 05:30:13;;;;;;;39.55;17.67;;;;;;;;;;5123718;28;20195;-65
2021/12/19 05:32:40;;;;;;;34.95;16.92;;;;;;;;;;5123750;28;20197;-66
2021/12/19 05:35:07;;;;;;;34.20;17.67;;;;;;;;;;5123851;28;20199;-65
2021/12/19 05:45:47;;;;;;;36.55;17.00;;;;;;;;;;5123025;28;20268;-65
2021/12/19 05:48:14;;;;;;;40.75;18.13;;;;;;;;;;5123969;28;20223;-65
2021/12/19 05:50:40;;;;;;;36.08;17.45;;;;;;;;;;5123445;28;20202;-65
2021/12/19 05:53:07;;;;;;;42.22;19.95;;;;;;;;;;5123553;28;20266;-65
2021/12/19 05:55:35;;;;;;;39.22;17.77;;;;;;;;;;5123403;28;20198;-67
2021/12/19 05:58:01;;;;;;;37.00;17.88;;;;;;;;;;5124280;28;20207;-67
2021/12/19 06:00:28;;;;;;;41.17;17.98;;;;;;;;;;5125116;28;20471;-67
2021/12/19 06:02:54;;;;;;;37.95;17.80;;;;;;;;;;5124933;28;20191;-67
2021/12/19 06:05:21;;;;;;;30.73;15.82;;;;;;;;;;5124374;28;20248;-67
2021/12/19 06:07:47;;;;;;;34.88;17.60;;;;;;;;;;5123307;28;20526;-67
2021/12/19 06:10:14;;;;;;;32.65;16.63;;;;;;;;;;5123056;28;20195;-67
2021/12/19 06:12:42;;;;;;;38.45;17.60;;;;;;;;;;5122898;28;20191;-67
2021/12/19 06:15:10;;;;;;;39.33;18.13;;;;;;;;;;5123114;28;20221;-67
2021/12/19 06:17:36;;;;;;;35.95;19.13;;;;;;;;;;5123301;28;20195;-67
2021/12/19 06:20:04;;;;;;;39.97;19.83;;;;;;;;;;5122891;28;20232;-65
2021/12/19 06:22:30;;;;;;;36.60;17.70;;;;;;;;;;5123017;28;20240;-64
2021/12/19 06:24:57;;;;;;;34.80;18.42;;;;;;;;;;5122604;28;20401;-65
2021/12/19 06:27:23;;;;;;;35.47;17.73;;;;;;;;;;5122745;28;20191;-65
2021/12/19 06:29:51;;;;;;;38.15;18.70;;;;;;;;;;5123135;28;20195;-65
2021/12/19 06:32:18;;;;;;;32.85;16.80;;;;;;;;;;5123270;28;20195;-65
2021/12/19 06:34:44;;;;;;;40.63;20.63;;;;;;;;;;5122722;28;20198;-65
2021/12/19 06:37:11;;;;;;;35.40;17.52;;;;;;;;;;5122928;28;20395;-65
2021/12/19 06:39:38;;;;;;;34.80;16.95;;;;;;;;;;5123056;28;20367;-67
2021/12/19 06:42:05;;;;;;;39.72;16.42;;;;;;;;;;5124391;28;20195;-65
2021/12/19 06:44:32;;;;;;;29.58;15.00;;;;;;;;;;5122839;28;20222;-65
2021/12/19 06:47:00;;;;;;;34.78;16.48;;;;;;;;;;5122353;28;20198;-65
2021/12/19 06:49:27;;;;;;;31.02;15.93;;;;;;;;;;5122579;28;20239;-65
2021/12/19 06:51:53;;;;;;;31.38;15.30;;;;;;;;;;5122616;28;20202;-67
2021/12/19 06:54:20;;;;;;;33.92;15.85;;;;;;;;;;5122552;28;20199;-67
2021/12/19 06:56:46;;;;;;;31.88;16.40;;;;;;;;;;5122746;28;20195;-67
2021/12/19 06:59:13;;;;;;;28.33;15.15;;;;;;;;;;5122511;28;20203;-69
2021/12/19 07:01:39;;;;;;;32.35;14.68;;;;;;;;;;5123136;28;20195;-69
2021/12/19 07:04:08;;;;;;;31.30;15.80;;;;;;;;;;5126789;28;20194;-68
2021/12/19 07:06:34;;;;;;;32.80;15.77;;;;;;;;;;5126806;27;20195;-69
2021/12/19 07:09:01;;;;;;;25.13;14.05;;;;;;;;;;5127066;28;20195;-68
2021/12/19 07:11:27;;;;;;;30.70;15.93;;;;;;;;;;5126924;28;20198;-69
2021/12/19 07:13:54;;;;;;;31.92;15.02;;;;;;;;;;5126978;28;20194;-69
2021/12/19 07:16:20;;;;;;;29.02;14.98;;;;;;;;;;5126980;28;20223;-68
2021/12/19 07:18:47;;;;;;;22.63;13.52;;;;;;;;;;5126782;28;20195;-67
2021/12/19 07:21:15;;;;;;;25.15;13.15;;;;;;;;;;5126382;28;20439;-67
2021/12/19 07:23:41;;;;;;;27.45;14.32;;;;;;;;;;5126209;28;20195;-68
2021/12/19 07:26:08;;;;;;;24.85;12.85;;;;;;;;;;5126394;28;20230;-68
2021/12/19 07:28:35;;;;;;;25.60;14.63;;;;;;;;;;5126318;28;20202;-68
2021/12/19 07:31:01;;;;;;;24.83;13.48;;;;;;;;;;5126299;28;20191;-68
2021/12/19 07:33:27;;;;;;;25.13;14.43;;;;;;;;;;5126061;28;20183;-68
2021/12/19 07:35:55;;;;;;;24.63;14.35;;;;;;;;;;5125933;28;20411;-68
2021/12/19 07:38:29;;;;;;;24.08;13.55;;;;;;;;;;5126446;28;20198;-68
2021/12/19 07:40:57;;;;;;;22.08;12.48;;;;;;;;;;5126254;27;20443;-68
2021/12/19 07:43:24;;;;;;;23.98;12.75;;;;;;;;;;5125880;28;20222;-68
2021/12/19 07:45:50;;;;;;;20.83;11.88;;;;;;;;;;5125076;28;20207;-68
2021/12/19 07:48:17;;;;;;;25.42;12.95;;;;;;;;;;5125472;28;20191;-68
2021/12/19 07:50:43;;;;;;;24.05;12.95;;;;;;;;;;5126285;28;20195;-68
2021/12/19 07:53:10;;;;;;;27.27;13.68;;;;;;;;;;5125854;28;20400;-68
2021/12/19 07:55:37;;;;;;;22.83;12.25;;;;;;;;;;5125554;28;20227;-68
2021/12/19 07:58:04;;;;;;;20.40;11.73;;;;;;;;;;5125717;28;20209;-68
2021/12/19 08:00:30;;;;;;;24.27;12.27;;;;;;;;;;5125679;28;20199;-68
2021/12/19 08:02:57;;;;;;;21.42;11.77;;;;;;;;;;5125438;28;20191;-67
2021/12/19 08:05:23;;;;;;;19.17;11.13;;;;;;;;;;5125620;28;20191;-68
2021/12/19 08:07:55;;;;;;;33.65;16.75;;;;;;;;;;5125479;28;20203;-68
2021/12/19 08:13:08;;;;;;;18.08;10.45;;;;;;;;;;5124170;28;20239;-67
2021/12/19 08:15:34;;;;;;;16.77;10.68;;;;;;;;;;5124941;28;20250;-67
2021/12/19 08:18:01;;;;;;;18.08;11.05;;;;;;;;;;5125272;28;20202;-67
2021/12/19 08:20:28;;;;;;;17.88;10.40;;;;;;;;;;5125658;28;20522;-67
2021/12/19 08:22:54;;;;;;;17.92;9.70;;;;;;;;;;5124873;28;20262;-67
2021/12/19 08:25:21;;;;;;;16.48;9.95;;;;;;;;;;5124965;28;20244;-68
2021/12/19 08:27:48;;;;;;;18.45;10.32;;;;;;;;;;5125417;28;20235;-68
2021/12/19 08:30:17;;;;;;;19.50;11.35;;;;;;;;;;5125303;28;20386;-68
2021/12/19 08:32:43;;;;;;;18.05;10.80;;;;;;;;;;5125189;27;20499;-67
2021/12/19 08:35:11;;;;;;;16.42;10.38;;;;;;;;;;5124636;28;20407;-67
2021/12/19 08:37:37;;;;;;;16.80;10.52;;;;;;;;;;5125063;28;20218;-67
2021/12/19 08:40:04;;;;;;;15.45;9.20;;;;;;;;;;5124977;28;20195;-67
2021/12/19 08:42:32;;;;;;;16.88;9.50;;;;;;;;;;5125006;28;20191;-67
2021/12/19 08:44:58;;;;;;;14.23;8.88;;;;;;;;;;5124787;28;20211;-67
2021/12/19 08:47:27;;;;;;;17.10;9.45;;;;;;;;;;5124586;28;20383;-67
2021/12/19 08:49:53;;;;;;;12.82;8.27;;;;;;;;;;5124740;28;20199;-67
2021/12/19 08:52:20;;;;;;;17.77;10.85;;;;;;;;;;5124456;28;20195;-67
2021/12/19 08:54:46;;;;;;;15.20;9.88;;;;;;;;;;5124297;28;20397;-66
2021/12/19 08:57:12;;;;;;;14.65;8.85;;;;;;;;;;5124767;28;20391;-56
2021/12/19 08:59:39;;;;;;;10.85;8.15;;;;;;;;;;5124436;28;20217;-57
2021/12/19 09:02:05;;;;;;;11.68;7.68;;;;;;;;;;5124148;28;20191;-57
2021/12/19 09:04:33;;;;;;;14.30;8.18;;;;;;;;;;5124428;28;20384;-57
2021/12/19 09:07:00;;;;;;;17.52;10.35;;;;;;;;;;5117577;28;20376;-56
2021/12/19 09:09:27;;;;;;;13.25;9.05;;;;;;;;;;5114348;28;20474;-56
2021/12/19 09:11:53;;;;;;;15.00;9.43;;;;;;;;;;5113310;28;20425;-56
2021/12/19 09:14:20;;;;;;;14.15;8.48;;;;;;;;;;5111965;28;20195;-55
2021/12/19 09:16:46;;;;;;;10.80;7.50;;;;;;;;;;5113237;28;20226;-55
2021/12/19 09:19:13;;;;;;;11.95;7.75;;;;;;;;;;5122914;28;20217;-55
2021/12/19 09:21:41;;;;;;;13.30;10.00;;;;;;;;;;5122919;28;20442;-56
2021/12/19 09:24:08;;;;;;;11.57;7.80;;;;;;;;;;5123660;28;20222;-55
2021/12/19 09:26:35;;;;;;;12.57;9.07;;;;;;;;;;5123401;28;20211;-55
2021/12/19 09:29:01;;;;;;;14.35;8.27;;;;;;;;;;5123856;28;20195;-55
2021/12/19 09:31:29;;;;;;;14.32;8.23;;;;;;;;;;5123558;28;20224;-55
2021/12/19 09:33:55;;;;;;;15.65;8.30;;;;;;;;;;5124059;28;20195;-56
2021/12/19 09:36:21;;;;;;;13.25;8.55;;;;;;;;;;5123578;28;20360;-54
2021/12/19 09:38:49;;;;;;;12.93;8.00;;;;;;;;;;5124107;28;20195;-55
2021/12/19 09:41:27;;;;;;;12.57;8.00;;;;;;;;;;5123819;28;20191;-56
2021/12/19 09:43:58;;;;;;;10.95;7.38;;;;;;;;;;5123927;28;20492;-56
2021/12/19 09:46:28;;;;;;;10.77;6.72;;;;;;;;;;5123730;28;20246;-61
2021/12/19 09:48:54;;;;;;;8.00;5.78;;;;;;;;;;5124354;28;20358;-60
2021/12/19 09:51:21;;;;;;;8.70;6.15;;;;;;;;;;5124116;28;20193;-60
2021/12/19 09:53:48;;;;;;;9.65;6.35;;;;;;;;;;5124573;28;20415;-61
2021/12/19 09:56:16;;;;;;;9.77;6.28;;;;;;;;;;5124458;28;20215;-61
2021/12/19 09:58:42;;;;;;;9.70;6.57;;;;;;;;;;5124097;28;20442;-59
2021/12/19 10:01:10;;;;;;;9.93;6.18;;;;;;;;;;5123900;28;20187;-60
2021/12/19 10:03:36;;;;;;;11.20;6.57;;;;;;;;;;5124406;28;20378;-61
2021/12/19 10:06:17;;;;;;;10.15;7.05;;;;;;;;;;5124492;28;20183;-57
2021/12/19 10:08:44;;;;;;;7.72;5.85;;;;;;;;;;5123492;28;20195;-56
2021/12/19 10:11:30;;;;;;;9.60;6.00;;;;;;;;;;5123007;28;20221;-56
2021/12/19 10:13:59;;;;;;;7.38;5.90;;;;;;;;;;5122635;28;20194;-56
2021/12/19 10:16:27;;;;;;;11.90;8.30;;;;;;;;;;5122494;28;20249;-57
2021/12/19 10:18:57;;;;;;;11.98;7.78;;;;;;;;;;5123376;28;20202;-55
2021/12/19 10:21:23;;;;;;;13.23;8.88;;;;;;;;;;5122718;28;20198;-58
2021/12/19 10:23:50;;;;;;;12.00;8.43;;;;;;;;;;5123143;28;20191;-55
2021/12/19 10:26:16;;;;;;;10.45;7.03;;;;;;;;;;5122743;28;20453;-57
2021/12/19 10:28:50;;;;;;;11.38;7.45;;;;;;;;;;5122845;28;20503;-56
2021/12/19 10:31:19;;;;;;;11.77;7.47;;;;;;;;;;5122876;28;20217;-59
2021/12/19 10:33:46;;;;;;;9.05;6.47;;;;;;;;;;5122761;28;20556;-60
2021/12/19 10:36:12;;;;;;;8.43;6.45;;;;;;;;;;5122459;28;20387;-59
2021/12/19 10:38:42;;;;;;;11.90;7.80;;;;;;;;;;5122719;28;20209;-60
2021/12/19 10:41:11;;;;;;;10.68;7.32;;;;;;;;;;5122483;28;20195;-58
2021/12/19 10:43:42;;;;;;;17.45;9.85;;;;;;;;;;5122997;28;20313;-59
2021/12/19 10:46:09;;;;;;;19.52;11.73;;;;;;;;;;5123091;28;20211;-60
2021/12/19 10:48:38;;;;;;;16.95;9.93;;;;;;;;;;5122684;28;20556;-60
2021/12/19 10:51:06;;;;;;;8.40;6.55;;;;;;;;;;5122754;28;20554;-60
2021/12/19 10:53:34;;;;;;;15.68;9.20;;;;;;;;;;5122967;28;20222;-60
2021/12/19 10:56:01;;;;;;;14.82;9.02;;;;;;;;;;5122719;28;20219;-60
2021/12/19 10:58:30;;;;;;;8.60;6.10;;;;;;;;;;5122586;28;20214;-61
2021/12/19 11:01:03;;;;;;;20.75;15.07;;;;;;;;;;5122666;28;20376;-59
2021/12/19 11:03:34;;;;;;;20.92;11.63;;;;;;;;;;5122735;28;20221;-61
2021/12/19 11:06:02;;;;;;;17.33;12.85;;;;;;;;;;5122459;28;20374;-60
2021/12/19 11:08:33;;;;;;;12.98;9.88;;;;;;;;;;5122614;28;20267;-61
2021/12/19 11:10:59;;;;;;;10.88;8.18;;;;;;;;;;5123073;28;20210;-58
2021/12/19 11:13:26;;;;;;;11.88;8.55;;;;;;;;;;5122806;28;20358;-63
2021/12/19 11:15:52;;;;;;;11.82;7.85;;;;;;;;;;5122964;28;20218;-62
2021/12/19 11:18:19;;;;;;;7.88;6.03;;;;;;;;;;5123364;28;20544;-62
2021/12/19 11:20:45;;;;;;;9.48;7.03;;;;;;;;;;5123045;28;20191;-61
2021/12/19 11:23:13;;;;;;;8.50;5.57;;;;;;;;;;5123467;28;20525;-61
2021/12/19 11:25:39;;;;;;;5.47;4.93;;;;;;;;;;5123176;28;20196;-60
2021/12/19 11:28:06;;;;;;;5.68;5.07;;;;;;;;;;5123575;28;20203;-62
2021/12/19 11:30:36;;;;;;;7.07;5.38;;;;;;;;;;5123640;28;20196;-61
2021/12/19 11:33:15;;;;;;;7.97;5.93;;;;;;;;;;5123424;28;20191;-61
2021/12/19 11:35:44;;;;;;;17.05;8.30;;;;;;;;;;5123167;28;20195;-60
2021/12/19 11:38:12;;;;;;;12.55;7.97;;;;;;;;;;5123287;28;20217;-63
2021/12/19 11:40:41;;;;;;;12.25;6.45;;;;;;;;;;5123189;28;20223;-61
2021/12/19 11:43:09;;;;;;;12.95;7.15;;;;;;;;;;5123223;28;20213;-61
2021/12/19 11:45:40;;;;;;;9.27;6.95;;;;;;;;;;5123092;28;20233;-61
2021/12/19 11:48:17;;;;;;;7.45;5.47;;;;;;;;;;5124230;28;20198;-61
2021/12/19 11:50:47;;;;;;;4.13;3.72;;;;;;;;;;5126967;28;20667;-62
2021/12/19 11:53:21;;;;;;;3.40;3.20;;;;;;;;;;5126241;28;20191;-61
2021/12/19 11:55:49;;;;;;;4.28;3.95;;;;;;;;;;5125709;28;20195;-61
2021/12/19 11:58:34;;;;;;;5.75;5.15;;;;;;;;;;5126903;28;20203;-60
2021/12/19 12:01:10;;;;;;;5.55;5.05;;;;;;;;;;5126493;28;20189;-60
2021/12/19 12:03:50;;;;;;;7.22;5.53;;;;;;;;;;5126511;28;20202;-61
2021/12/19 12:06:30;;;;;;;5.65;5.13;;;;;;;;;;5126478;28;20191;-61
2021/12/19 12:09:08;;;;;;;6.15;5.10;;;;;;;;;;5126750;28;20179;-61
2021/12/19 12:11:37;;;;;;;7.15;4.63;;;;;;;;;;5126454;28;20214;-61
2021/12/19 12:14:20;;;;;;;21.10;14.63;;;;;;;;;;5126035;28;20232;-61
2021/12/19 12:16:52;;;;;;;8.05;6.57;;;;;;;;;;5105681;28;20216;-61
2021/12/19 12:19:36;;;;;;;6.85;5.32;;;;;;;;;;5112826;28;20247;-61
2021/12/19 12:22:28;;;;;;;5.45;4.95;;;;;;;;;;5125964;28;20513;-61
2021/12/19 12:25:05;;;;;;;6.30;5.30;;;;;;;;;;5105672;28;20242;-61
2021/12/19 12:27:36;;;;;;;11.45;7.47;;;;;;;;;;5105696;28;20560;-61
2021/12/19 12:30:03;;;;;;;9.23;7.60;;;;;;;;;;5108477;28;20187;-62
2021/12/19 12:32:30;;;;;;;9.32;7.28;;;;;;;;;;5125283;28;20202;-56
2021/12/19 12:34:57;;;;;;;11.30;7.97;;;;;;;;;;5124729;28;20201;-57
2021/12/19 12:37:23;;;;;;;12.75;8.70;;;;;;;;;;5125256;28;20651;-57
2021/12/19 12:40:15;;;;;;;14.70;10.57;;;;;;;;;;5124961;28;20495;-57
2021/12/19 12:42:56;;;;;;;11.60;8.05;;;;;;;;;;5124957;28;20514;-55
2021/12/19 12:45:23;;;;;;;11.63;8.32;;;;;;;;;;5124640;28;20395;-55
2021/12/19 12:47:50;;;;;;;9.50;6.90;;;;;;;;;;5125266;28;20491;-62
2021/12/19 12:50:16;;;;;;;10.20;7.85;;;;;;;;;;5125343;28;20244;-61
2021/12/19 12:52:43;;;;;;;13.18;8.52;;;;;;;;;;5125486;28;20204;-60
2021/12/19 12:55:10;;;;;;;13.35;8.18;;;;;;;;;;5125653;28;20202;-60
2021/12/19 12:57:39;;;;;;;10.68;7.40;;;;;;;;;;5125453;28;20440;-61
2021/12/19 13:00:08;;;;;;;11.52;8.15;;;;;;;;;;5124932;28;20183;-61
2021/12/19 13:02:43;;;;;;;16.45;9.65;;;;;;;;;;5125574;28;20195;-61
2021/12/19 13:05:10;;;;;;;13.75;9.63;;;;;;;;;;5124983;28;20194;-61
2021/12/19 13:07:36;;;;;;;11.00;8.15;;;;;;;;;;5125605;28;20499;-61
2021/12/19 13:10:03;;;;;;;11.63;8.82;;;;;;;;;;5125079;28;20195;-62
2021/12/19 13:12:30;;;;;;;12.52;8.98;;;;;;;;;;5125008;28;20202;-62
2021/12/19 13:14:58;;;;;;;11.38;7.88;;;;;;;;;;5125436;28;20195;-62
2021/12/19 13:17:27;;;;;;;11.38;8.63;;;;;;;;;;5125000;28;20422;-61
2021/12/19 13:19:54;;;;;;;15.05;9.38;;;;;;;;;;5125630;28;20379;-61
2021/12/19 13:22:23;;;;;;;11.95;8.57;;;;;;;;;;5125195;28;20369;-59
2021/12/19 13:24:50;;;;;;;12.43;8.38;;;;;;;;;;5124056;28;20517;-59
2021/12/19 13:27:19;;;;;;;11.55;8.20;;;;;;;;;;5124158;28;20392;-60
2021/12/19 13:29:57;;;;;;;13.15;9.13;;;;;;;;;;5123863;28;20199;-61
2021/12/19 13:32:27;;;;;;;11.05;8.02;;;;;;;;;;5123562;28;20187;-59
2021/12/19 13:34:54;;;;;;;12.63;7.70;;;;;;;;;;5123769;28;20262;-60
2021/12/19 13:37:21;;;;;;;14.10;8.98;;;;;;;;;;5123923;28;20215;-61
2021/12/19 13:39:58;;;;;;;13.30;9.20;;;;;;;;;;5123726;28;20191;-59
2021/12/19 13:42:36;;;;;;;11.35;8.13;;;;;;;;;;5123703;28;20467;-59
2021/12/19 13:45:03;;;;;;;13.55;8.95;;;;;;;;;;5123337;28;20215;-60
2021/12/19 13:47:31;;;;;;;11.63;8.30;;;;;;;;;;5123915;28;20273;-60
2021/12/19 13:49:57;;;;;;;11.80;8.30;;;;;;;;;;5123317;28;20446;-61
2021/12/19 13:52:24;;;;;;;12.80;9.20;;;;;;;;;;5123546;28;20195;-58
2021/12/19 13:54:50;;;;;;;10.52;8.10;;;;;;;;;;5123288;28;20195;-61
2021/12/19 13:57:18;;;;;;;10.38;8.18;;;;;;;;;;5124087;28;20234;-60
2021/12/19 13:59:45;;;;;;;11.07;7.55;;;;;;;;;;5123287;28;20202;-61
2021/12/19 14:02:11;;;;;;;10.15;7.95;;;;;;;;;;5123053;28;20195;-61
2021/12/19 14:04:39;;;;;;;10.90;7.45;;;;;;;;;;5123315;28;20198;-60
2021/12/19 14:07:10;;;;;;;12.00;8.23;;;;;;;;;;5123291;28;20199;-61
2021/12/19 14:09:39;;;;;;;7.70;6.93;;;;;;;;;;5123380;28;20236;-61
2021/12/19 14:12:11;;;;;;;13.30;11.18;;;;;;;;;;5124890;28;20195;-59
2021/12/19 14:14:38;;;;;;;11.18;10.00;;;;;;;;;;5102881;28;20184;-59
2021/12/19 14:17:07;;;;;;;7.50;6.80;;;;;;;;;;5102609;28;20222;-60
2021/12/19 14:19:35;;;;;;;8.90;6.50;;;;;;;;;;5102919;28;20196;-56
2021/12/19 14:22:11;;;;;;;11.02;8.95;;;;;;;;;;5122944;28;20546;-55
2021/12/19 14:24:41;;;;;;;8.18;6.90;;;;;;;;;;5102506;28;20190;-56
2021/12/19 14:27:15;;;;;;;7.32;5.22;;;;;;;;;;5102871;28;20364;-55
2021/12/19 14:29:43;;;;;;;6.82;5.22;;;;;;;;;;5102906;28;20483;-55
2021/12/19 14:32:11;;;;;;;5.85;4.60;;;;;;;;;;5121728;28;20198;-54
2021/12/19 14:34:39;;;;;;;4.85;4.45;;;;;;;;;;5122489;28;20195;-55
2021/12/19 14:37:14;;;;;;;5.35;4.63;;;;;;;;;;5122893;28;20219;-55
2021/12/19 14:39:41;;;;;;;5.50;5.00;;;;;;;;;;5123131;28;20370;-54
2021/12/19 14:42:08;;;;;;;6.60;5.30;;;;;;;;;;5122781;28;20279;-56
2021/12/19 14:44:35;;;;;;;5.22;4.80;;;;;;;;;;5122272;28;20206;-55
2021/12/19 14:47:01;;;;;;;5.35;4.85;;;;;;;;;;5122554;28;20232;-55
2021/12/19 14:49:36;;;;;;;5.95;4.85;;;;;;;;;;5123243;28;20495;-56
2021/12/19 14:52:03;;;;;;;4.75;4.40;;;;;;;;;;5122713;28;20201;-56
2021/12/19 14:54:31;;;;;;;5.65;5.10;;;;;;;;;;5122545;28;20191;-54
2021/12/19 14:56:59;;;;;;;6.40;5.80;;;;;;;;;;5122845;28;20549;-57
2021/12/19 14:59:27;;;;;;;7.03;6.22;;;;;;;;;;5122401;28;20270;-57
2021/12/19 15:01:54;;;;;;;6.03;5.50;;;;;;;;;;5122908;28;20464;-54
2021/12/19 15:04:23;;;;;;;5.82;5.28;;;;;;;;;;5122320;28;20195;-56
2021/12/19 15:06:57;;;;;;;6.95;4.93;;;;;;;;;;5122613;28;20191;-56
2021/12/19 15:09:24;;;;;;;5.30;4.90;;;;;;;;;;5122780;28;20363;-56
2021/12/19 15:11:52;;;;;;;7.10;5.43;;;;;;;;;;5122302;28;20195;-55
2021/12/19 15:14:18;;;;;;;6.13;5.32;;;;;;;;;;5123059;28;20198;-56
2021/12/19 15:16:45;;;;;;;5.80;5.30;;;;;;;;;;5122299;28;20515;-57
2021/12/19 15:19:11;;;;;;;12.13;7.88;;;;;;;;;;5122588;28;20195;-56
2021/12/19 15:21:39;;;;;;;18.63;12.40;;;;;;;;;;5122492;28;20195;-56
2021/12/19 15:24:06;;;;;;;7.68;6.00;;;;;;;;;;5124823;28;20390;-54